Weather observations for the past three days for
Bowman Regional Airport
Imperial (Metric)
Date Time (mdt) Wind (mph) Vis. (mi.) Weather Sky Cond. Temperature (ºF) Relative Humidity Wind Chill (°F) Heat Index (°F) Pressure Precipitation (in)
Air Dwpt 6 hour altimeter (in) sea level (mb) 1 hr 3 hr 6 hr
Max. Min.
07 12:55 Vrbl 5 G 14 10.00 Fair CLR 59 17.6 20% 29.83 0.0
07 12:35 SW 8 G 18 10.00 Fair CLR 59 21.2 23% 29.83 0.0
07 12:15 Calm 10.00 Fair CLR 57.2 17.6 21% 29.84 0.0
07 11:55 Vrbl 5 G 12 10.00 Fair CLR 57.2 17.6 21% 29.84 0.0
07 11:35 Vrbl 3 10.00 Fair CLR 57.2 15.8 20% 29.85 0.0
07 11:15 S 8 G 15 10.00 Fair CLR 57.2 17.6 21% 29.85 0.0
07 10:55 Calm 10.00 Fair CLR 57.2 15.8 20% 29.85 0.0
07 10:35 Calm 10.00 Fair CLR 55.4 14 19% 29.85 0.0
07 10:15 Calm 10.00 Fair CLR 55.4 15.8 21% 29.86 0.0
07 09:55 Calm 10.00 Fair CLR 53.6 14 21% 29.86 0.0
07 09:35 Calm 10.00 Fair CLR 53.6 12.2 19% 29.86 0.0
07 09:15 Vrbl 5 10.00 Fair CLR 51.8 14 22% 29.86 0.0
07 08:55 Vrbl 5 10.00 Fair CLR 51.8 15.8 24% 29.86 0.0
07 08:35 Calm 10.00 Fair CLR 50 14 24% 29.86 0.0
07 08:15 Calm 10.00 Fair CLR 48.2 23 37% 29.86 0.0
07 07:55 Calm 10.00 Fair CLR 44.6 24.8 46% 29.86 0.0
07 07:35 SW 5 10.00 Fair CLR 42.8 24.8 49% 41 29.86 0.0
07 07:15 SW 3 10.00 Fair CLR 41 23 49% 29.86 0.0
07 06:55 W 3 10.00 Fair CLR 37.4 26.6 65% 29.86 0.0
07 06:35 SW 3 10.00 Fair CLR 33.8 23 65% 29.85 0.0
07 06:15 Calm 10.00 Fair CLR 30.2 21.2 69% 29.84 0.0
07 05:55 W 5 10.00 Fair CLR 32 21.2 64% 28 29.84 0.0
07 05:35 SW 6 10.00 Fair CLR 30.2 21.2 69% 25 29.83 0.0
07 05:15 Calm 10.00 Fair CLR 30.2 19.4 64% 29.83 0.0
07 04:55 Calm 10.00 Fair CLR 30.2 21.2 69% 29.83 0.0
07 04:35 SW 5 10.00 Fair CLR 30.2 21.2 69% 26 29.83 0.0
07 04:15 S 3 10.00 Fair CLR 30.2 19.4 64% 29.83 0.0
07 03:55 S 6 10.00 Fair CLR 32 19.4 60% 27 29.83 0.0
07 03:35 S 6 10.00 Fair CLR 32 19.4 60% 27 29.83 0.0
07 03:15 Calm 10.00 Fair CLR 32 19.4 60% 29.83 0.0
07 02:55 SE 7 10.00 Fair CLR 32 19.4 60% 26 29.84 0.0
07 02:35 SE 6 10.00 Fair CLR 32 19.4 60% 27 29.84 0.0
07 02:15 SE 10 10.00 Fair CLR 32 19.4 60% 24 29.83 0.0
07 01:55 SE 13 10.00 Fair CLR 32 19.4 60% 23 29.83 0.0
07 01:35 SE 13 10.00 Fair CLR 32 19.4 60% 23 29.84 0.0
07 01:15 SE 13 10.00 Fair CLR 33.8 19.4 56% 25 29.84 0.0
07 00:55 SE 13 10.00 Fair CLR 33.8 17.6 51% 25 29.84 0.0
07 00:35 SE 10 10.00 Fair CLR 33.8 17.6 51% 26 29.84 0.0
07 00:15 SE 13 10.00 Fair CLR 33.8 15.8 48% 25 29.84 0.0
06 23:55 E 10 10.00 Fair CLR 33.8 15.8 48% 26 29.85 0.0
06 23:35 N 9 10.00 Fair CLR 35.6 15.8 44% 29 29.85 0.0
06 23:15 NE 8 10.00 Fair CLR 35.6 15.8 44% 30 29.85 0.0
06 22:55 NE 7 10.00 Fair CLR 37.4 17.6 45% 33 29.85 0.0
06 22:35 NE 6 10.00 Fair CLR 37.4 17.6 45% 33 29.85 0.0
06 22:15 NE 6 10.00 Fair CLR 39.2 19.4 45% 36 29.85 0.0
06 21:55 N 5 10.00 Fair CLR 37.4 19.4 48% 34 29.85 0.0
06 21:35 Calm 10.00 Fair CLR 46.4 17.6 32% 29.84 0.0
06 21:15 NW 3 10.00 Fair CLR 46.4 17.6 32% 29.85 0.0
06 20:55 NW 5 10.00 Fair CLR 46.4 17.6 32% 45 29.85 0.0
06 20:35 NW 6 10.00 Fair CLR 46.4 17.6 32% 44 29.85 0.0
06 20:15 NW 6 10.00 A Few Clouds FEW075 46.4 19.4 34% 44 29.85 0.0
06 19:55 NW 7 10.00 Mostly Cloudy SCT080 BKN085 48.2 19.4 32% 46 29.85 0.0
06 19:35 NW 6 10.00 Mostly Cloudy BKN080 50 19.4 30% 48 29.86 0.0
06 19:15 NW 10 10.00 Mostly Cloudy BKN080 51.8 19.4 28% 29.86 0.0
06 18:55 NW 9 10.00 A Few Clouds FEW085 51.8 17.6 26% 29.86 0.0
06 18:35 NW 12 10.00 Partly Cloudy FEW080 SCT090 51.8 17.6 26% 29.87 0.0
06 18:15 W 7 G 16 10.00 Mostly Cloudy SCT075 BKN090 51.8 17.6 26% 29.87 0.0
06 17:55 NW 16 10.00 Mostly Cloudy BKN080 BKN090 53.6 17.6 24% 29.87 0.0
06 17:35 W 14 G 23 10.00 Mostly Cloudy BKN080 BKN085 53.6 15.8 22% 29.88 0.0
06 17:15 NW 10 G 18 10.00 Partly Cloudy SCT080 51.8 17.6 26% 29.88 0.0
06 16:55 NW 16 10.00 Partly Cloudy SCT080 53.6 15.8 22% 29.88 0.0
06 16:35 NW 21 G 26 10.00 Partly Cloudy and Breezy SCT080 53.6 15.8 22% 29.89 0.0
06 16:15 NW 21 G 29 10.00 Mostly Cloudy and Breezy BKN080 53.6 15.8 22% 29.9 0.0
06 15:55 W 15 G 29 10.00 Partly Cloudy SCT080 53.6 14 21% 29.91 0.0
06 15:35 NW 14 G 25 10.00 A Few Clouds FEW080 53.6 14 21% 29.92 0.0
06 15:15 W 13 G 25 10.00 Fair CLR 51.8 14 22% 29.93 0.0
06 14:55 W 18 G 26 10.00 Fair CLR 53.6 14 21% 29.94 0.0
06 14:35 W 17 10.00 A Few Clouds FEW080 51.8 14 22% 29.94 0.0
06 14:15 NW 14 G 24 10.00 A Few Clouds FEW080 51.8 14 22% 29.95 0.0
06 13:55 NW 16 10.00 A Few Clouds FEW080 51.8 14 22% 29.96 0.0
06 13:35 NW 12 G 24 10.00 Fair CLR 50 12.2 22% 46 29.97 0.0
06 13:15 W 10 G 22 10.00 Fair CLR 48.2 12.2 23% 44 29.98 0.0
06 12:55 NW 17 10.00 Fair CLR 50 12.2 22% 45 29.99 0.0
06 12:35 W 20 10.00 Fair CLR 50 12.2 22% 44 29.99 0.0
06 12:15 W 16 G 28 10.00 Fair CLR 48.2 10.4 21% 43 30.01 0.0
06 11:55 NW 12 G 23 10.00 Fair CLR 48.2 10.4 21% 44 30.02 0.0
06 11:35 NW 15 G 22 10.00 Fair CLR 48.2 10.4 21% 43 30.02 0.0
06 11:15 NW 16 G 23 10.00 Fair CLR 46.4 10.4 23% 40 30.03 0.0
06 10:55 NW 17 G 30 10.00 Fair CLR 46.4 10.4 23% 40 30.03 0.0
06 10:35 N 13 G 21 10.00 Fair CLR 44.6 12.2 27% 39 30.04 0.0
06 10:15 NW 16 G 23 10.00 Fair CLR 44.6 10.4 25% 38 30.04 0.0
06 09:55 NW 18 G 25 10.00 Fair CLR 44.6 10.4 25% 37 30.05 0.0
06 09:35 NW 13 G 23 10.00 Fair CLR 42.8 12.2 29% 37 30.05 0.0
06 09:15 NW 14 G 22 10.00 Fair CLR 42.8 14 31% 36 30.05 0.0
06 08:55 NW 9 G 17 10.00 Fair CLR 41 14 33% 36 30.06 0.0
06 08:35 NW 10 10.00 Fair CLR 39.2 17.6 42% 33 30.06 0.0
06 08:15 NW 12 10.00 Fair CLR 39.2 19.4 45% 33 30.06 0.0
06 07:55 NW 9 10.00 Fair CLR 35.6 21.2 56% 29 30.06 0.0
06 07:35 NW 9 10.00 Fair CLR 33.8 21.2 60% 27 30.06 0.0
06 07:15 W 10 10.00 Fair CLR 32 21.2 64% 24 30.06 0.0
06 06:55 W 10 10.00 Fair CLR 30.2 21.2 69% 22 30.05 0.0
06 06:35 W 12 10.00 Fair CLR 26.6 21.2 80% 17 30.05 0.0
06 06:15 W 10 10.00 Fair CLR 24.8 21.2 86% 15 30.04 0.0
06 05:55 W 12 10.00 Fair CLR 23 21.2 93% 13 30.04 0.0
06 05:35 NW 13 10.00 Fair CLR 23 19.4 86% 12 30.04 0.0
06 05:15 NW 10 10.00 Fair CLR 23 19.4 86% 13 30.04 0.0
06 04:55 NW 10 10.00 Fair CLR 23 19.4 86% 13 30.04 0.0
06 04:35 NW 10 10.00 Fair CLR 23 19.4 86% 13 30.04 0.0
06 04:15 NW 10 10.00 Fair CLR 23 19.4 86% 13 30.04 0.0
06 03:55 NW 9 10.00 Fair CLR 23 19.4 86% 14 30.04 0.0
06 03:35 NW 9 10.00 Fair CLR 24.8 19.4 80% 16 30.03 0.0
06 03:15 NW 10 10.00 Fair CLR 23 19.4 86% 13 30.03 0.0
06 02:55 NW 10 10.00 Fair CLR 23 19.4 86% 13 30.03 0.0
06 02:35 W 10 10.00 Fair CLR 24.8 19.4 80% 15 30.03 0.0
06 02:15 W 10 10.00 Fair CLR 24.8 19.4 80% 15 30.03 0.0
06 01:55 W 10 10.00 Fair CLR 26.6 19.4 74% 18 30.03 0.0
06 01:35 W 12 10.00 Fair CLR 26.6 17.6 69% 17 30.03 0.0
06 01:15 W 10 10.00 Fair CLR 28.4 17.6 64% 20 30.04 0.0
06 00:55 W 10 10.00 Fair CLR 28.4 17.6 64% 20 30.04 0.0
06 00:35 W 10 10.00 Fair CLR 28.4 17.6 64% 20 30.04 0.0
05 23:55 W 12 10.00 Fair CLR 28.4 17.6 64% 19 30.04 0.0
05 23:35 W 10 10.00 Fair CLR 28.4 17.6 64% 20 30.04 0.0
05 23:15 W 9 10.00 Fair CLR 28.4 17.6 64% 20 30.04 0.0
05 22:55 W 9 10.00 Fair CLR 28.4 15.8 59% 20 30.04 0.0
05 22:35 W 9 10.00 Fair CLR 30.2 15.8 55% 23 30.04 0.0
05 22:15 W 8 10.00 Fair CLR 30.2 15.8 55% 23 30.04 0.0
05 21:55 NW 8 10.00 Fair CLR 30.2 15.8 55% 23 30.04 0.0
05 21:35 NW 9 10.00 A Few Clouds FEW060 FEW070 30.2 15.8 55% 23 30.04 0.0
05 21:15 NW 9 10.00 Mostly Cloudy FEW060 BKN070 32 17.6 55% 25 30.03 0.0
05 20:55 NW 9 10.00 Overcast OVC070 33.8 17.6 51% 27 30.03 0.0
05 20:35 NW 9 10.00 Overcast OVC065 33.8 17.6 51% 27 30.02 0.0
05 20:15 NW 8 10.00 Mostly Cloudy SCT060 BKN070 35.6 17.6 48% 30 30.01 0.0
05 19:55 N 10 10.00 A Few Clouds FEW060 37.4 15.8 41% 31 30.01 0.0
05 19:35 N 15 10.00 Mostly Cloudy FEW048 BKN060 39.2 15.8 39% 31 30 0.0
05 19:15 N 16 10.00 Overcast BKN060 OVC075 39.2 15.8 39% 31 29.99 0.0
05 18:55 N 17 G 25 10.00 Overcast BKN060 OVC075 41 15.8 36% 33 29.98 0.0
05 18:35 N 16 G 24 10.00 Overcast BKN065 OVC075 42.8 15.8 34% 36 29.98 0.0
05 18:15 N 17 G 26 10.00 Overcast BKN065 OVC075 41 15.8 36% 33 29.98 0.0
05 17:55 N 16 G 26 10.00 Overcast BKN065 OVC075 42.8 15.8 34% 36 29.97 0.0
05 17:35 N 18 G 26 10.00 Overcast BKN065 OVC075 42.8 14 31% 35 29.97 0.0
05 17:15 NW 14 G 23 10.00 Overcast OVC065 42.8 14 31% 36 29.97 0.0
05 16:55 NW 20 G 26 10.00 Overcast OVC065 44.6 12.2 27% 37 29.96 0.0
05 16:35 NW 18 G 24 10.00 Overcast OVC065 42.8 14 31% 35 29.96 0.0
05 16:15 NW 17 G 24 10.00 Mostly Cloudy BKN060 44.6 14 29% 38 29.96 0.0
05 15:55 NW 17 G 29 10.00 Overcast BKN055 OVC065 44.6 15.8 31% 38 29.97 0.0
05 15:35 NW 18 G 25 10.00 Overcast FEW048 OVC060 44.6 15.8 31% 37 29.97 0.0
05 15:15 N 21 G 28 10.00 Mostly Cloudy and Breezy BKN055 42.8 15.8 34% 35 29.97 0.0
05 14:55 NW 20 G 26 10.00 Mostly Cloudy BKN060 42.8 15.8 34% 35 29.97 0.0
05 14:35 N 16 G 28 10.00 Overcast OVC055 42.8 15.8 34% 36 29.98 0.0
05 14:15 N 23 10.00 Overcast and Breezy OVC055 42.8 17.6 36% 34 29.97 0.0
05 13:55 NW 18 G 26 10.00 Overcast OVC055 42.8 17.6 36% 35 29.97 0.0
05 13:35 NW 20 G 26 10.00 Overcast BKN050 OVC055 41 17.6 39% 33 29.98 0.0
05 13:15 NW 21 G 29 10.00 Overcast and Breezy BKN050 OVC055 41 17.6 39% 32 29.97 0.0
05 12:55 N 18 G 26 10.00 Overcast BKN050 OVC055 41 17.6 39% 33 29.97 0.0
05 12:35 NW 18 G 30 10.00 Overcast OVC050 41 17.6 39% 33 29.97 0.0
05 12:15 NW 20 G 25 10.00 Overcast OVC050 41 17.6 39% 33 29.97 0.0
05 11:55 N 22 G 28 10.00 Overcast and Breezy BKN046 OVC050 39.2 17.6 42% 30 29.97 0.0
05 11:35 NW 20 10.00 Overcast BKN044 OVC050 39.2 19.4 45% 30 29.97 0.0
05 11:15 N 21 10.00 Overcast and Breezy BKN043 OVC050 39.2 19.4 45% 30 29.97 0.0
05 10:55 N 23 10.00 Overcast and Breezy BKN043 OVC055 39.2 19.4 45% 29 29.97 0.0
05 10:35 N 20 G 29 10.00 Overcast FEW038 BKN050 OVC055 39.2 21.2 48% 30 29.97 0.0
05 10:15 N 18 10.00 Overcast FEW036 SCT043 OVC050 39.2 21.2 48% 31 29.97 0.0
05 09:55 NW 18 G 26 10.00 Mostly Cloudy FEW034 SCT043 BKN050 37.4 23 56% 28 29.97 0.0
05 09:35 NW 21 10.00 Overcast and Breezy FEW037 SCT049 OVC060 39.2 23 52% 30 29.97 0.0
05 09:15 NW 21 9.00 Light Unknown Precip and Breezy BKN039 BKN047 OVC055 35.6 23 60% 25 29.98 0.0
05 08:55 N 16 G 26 10.00 Overcast SCT037 BKN050 OVC060 39.2 21.2 48% 31 29.97 0.0
05 08:35 N 23 10.00 Mostly Cloudy and Breezy SCT037 SCT044 BKN050 37.4 21.2 52% 27 29.97 0.0
05 08:15 NW 16 10.00 Mostly Cloudy FEW037 BKN060 37.4 21.2 52% 29 29.97 0.0
05 07:55 NW 20 10.00 Overcast FEW042 SCT050 OVC060 35.6 21.2 56% 26 29.97 0.0
05 07:35 N 20 G 25 10.00 Overcast FEW043 BKN050 OVC060 37.4 21.2 52% 28 29.96 0.0
05 07:15 NW 17 G 23 10.00 Mostly Cloudy BKN060 35.6 21.2 56% 26 29.96 0.0
05 06:55 NW 13 10.00 Mostly Cloudy FEW038 SCT055 BKN065 32 21.2 64% 23 29.95 0.0
05 06:35 NW 9 10.00 Overcast FEW038 OVC060 33.8 21.2 60% 27 29.95 0.0
05 06:15 NW 10 10.00 Overcast SCT039 OVC060 32 21.2 64% 24 29.95 0.0
05 05:55 NW 10 10.00 Overcast OVC060 32 21.2 64% 24 29.94 0.0
05 05:35 NW 13 10.00 Overcast OVC060 32 23 69% 23 29.94 0.0
05 05:15 NW 12 10.00 Overcast OVC060 32 21.2 64% 24 29.93 0.0
05 04:55 NW 14 10.00 Overcast OVC060 33.8 23 65% 25 29.93 0.0
05 04:35 NW 13 10.00 Overcast OVC060 33.8 21.2 60% 25 29.93 0.0
05 04:15 NW 12 10.00 Overcast OVC060 33.8 23 65% 26 29.93 0.0
05 03:55 NW 12 10.00 Overcast OVC060 33.8 23 65% 26 29.94 0.0
05 03:35 NW 10 10.00 Overcast FEW045 OVC060 33.8 23 65% 26 29.93 0.0
05 03:15 NW 12 10.00 Overcast FEW038 FEW045 OVC060 33.8 23 65% 26 29.94 0.0
05 02:55 NW 10 10.00 Overcast OVC065 32 23 69% 24 29.94 0.0
05 02:35 NW 8 10.00 Overcast OVC060 32 23 69% 25 29.94 0.0
05 02:15 NW 9 10.00 Overcast OVC060 32 23 69% 25 29.94 0.0
05 01:55 NW 9 10.00 Overcast BKN050 OVC060 32 23 69% 25 29.94 0.0
05 01:35 NW 9 10.00 Overcast BKN049 OVC060 32 24.8 75% 25 29.94 0.0
05 01:15 NW 9 10.00 Overcast FEW044 OVC055 30.2 24.8 80% 23 29.93 0.0
05 00:55 NW 9 10.00 Mostly Cloudy FEW049 BKN055 28.4 23 80% 20 29.94 0.0
05 00:35 NW 9 10.00 Overcast OVC055 30.2 23 75% 23 29.94 0.0
05 00:15 NW 10 10.00 Partly Cloudy SCT055 28.4 23 80% 20 29.93 0.0
04 23:55 NW 8 10.00 A Few Clouds FEW060 28.4 23 80% 21 29.92 0.0
04 23:35 NW 9 10.00 Fair CLR 28.4 23 80% 20 29.92 0.0
04 23:15 NW 12 10.00 Fair CLR 28.4 23 80% 19 29.91 0.0
04 22:55 NW 12 10.00 Fair CLR 30.2 21.2 69% 21 29.91 0.0
04 22:35 NW 12 10.00 Fair CLR 32 21.2 64% 24 29.9 0.0
04 22:15 NW 13 10.00 Fair CLR 32 23 69% 23 29.9 0.0
04 21:55 NW 13 10.00 Fair CLR 33.8 23 65% 25 29.89 0.0
04 21:35 NW 12 10.00 Fair CLR 33.8 23 65% 26 29.89 0.0
04 21:15 NW 10 10.00 Fair CLR 33.8 23 65% 26 29.88 0.0
04 20:55 NW 10 10.00 Fair CLR 37.4 23 56% 31 29.87 0.0
04 20:35 N 12 10.00 Fair CLR 37.4 23 56% 30 29.86 0.0
04 20:15 N 14 G 21 10.00 Partly Cloudy FEW036 FEW049 SCT060 41 23 49% 34 29.85 0.0
04 19:55 N 20 10.00 Partly Cloudy SCT060 SCT080 41 23 49% 33 29.84 0.0
04 19:35 N 17 G 25 10.00 Partly Cloudy FEW055 SCT065 SCT080 42.8 23 46% 35 29.84 0.0
04 19:15 N 21 G 26 10.00 Partly Cloudy and Breezy FEW055 SCT065 SCT075 44.6 23 43% 37 29.83 0.0
04 18:55 N 21 G 28 10.00 A Few Clouds and Breezy FEW065 FEW085 46.4 23 40% 39 29.83 0.0
04 18:35 N 23 G 32 10.00 A Few Clouds and Breezy FEW070 48.2 23 37% 41 29.82 0.0
04 18:15 N 24 G 36 10.00 Partly Cloudy and Breezy FEW055 SCT070 48.2 23 37% 41 29.82 0.0
04 17:55 N 23 G 35 10.00 Partly Cloudy and Breezy SCT060 SCT070 50 23 35% 44 29.82 0.0
04 17:35 N 26 G 35 10.00 Mostly Cloudy and Windy SCT060 BKN075 48.2 23 37% 41 29.82 0.0
04 17:15 NW 28 G 36 10.00 Mostly Cloudy and Windy SCT060 BKN075 50 23 35% 43 29.82 0.0
04 16:55 N 28 G 36 10.00 Mostly Cloudy and Windy BKN060 BKN070 BKN085 48.2 23 37% 41 29.81 0.0
04 16:35 NW 30 10.00 Mostly Cloudy and Windy SCT060 BKN070 51.8 24.8 35% 29.8 0.0
04 16:15 N 29 10.00 Mostly Cloudy and Windy SCT060 SCT070 BKN080 50 24.8 37% 43 29.81 0.0
04 15:55 NW 29 G 40 10.00 Mostly Cloudy and Windy SCT070 BKN080 BKN090 50 24.8 37% 43 29.81 0.0
04 15:35 NW 25 G 37 10.00 Mostly Cloudy and Breezy BKN065 BKN080 50 23 35% 43 29.81 0.0
04 15:15 N 26 G 36 10.00 Mostly Cloudy and Windy SCT060 BKN075 50 23 35% 43 29.81 0.0
04 14:55 NW 31 G 43 10.00 Mostly Cloudy and Windy SCT060 BKN070 BKN080 50 23 35% 42 29.81 0.0
04 14:35 NW 26 G 40 10.00 Partly Cloudy and Windy FEW055 SCT065 SCT080 50 23 35% 43 29.82 0.0
04 14:15 NW 30 G 40 10.00 Partly Cloudy and Windy FEW060 SCT075 SCT085 51.8 24.8 35% 29.81 0.0
04 13:55 NW 26 G 41 10.00 Mostly Cloudy and Windy FEW060 BKN075 51.8 24.8 35% 29.82 0.0
04 13:35 NW 33 10.00 Mostly Cloudy and Windy SCT060 BKN070 BKN080 51.8 24.8 35% 29.81 0.0
04 13:15 NW 26 G 43 10.00 Mostly Cloudy and Windy SCT055 BKN070 BKN080 51.8 24.8 35% 29.81 0.0
Date Time (mdt) Wind (mph) Vis. (mi.) Weather Sky Cond. Air Dwpt Max. Min. Relative Humidity Wind Chill (°F) Heat Index (°F) altimeter (in) sea level (mb) 1 hr 3 hr 6 hr
6 hour
Temperature (ºF) Pressure Precipitation (in)